createdAt,value
2022-08-01T00:02:22.670Z,438
2022-08-01T00:07:41.034Z,430
2022-08-01T00:12:59.221Z,421
2022-08-01T00:18:17.979Z,415
2022-08-01T00:23:36.444Z,411
2022-08-01T00:28:55.248Z,413
2022-08-01T00:34:13.973Z,410
2022-08-01T00:39:32.770Z,418
2022-08-01T00:44:51.246Z,415
2022-08-01T00:50:09.977Z,411
2022-08-01T00:55:28.757Z,409
2022-08-01T01:00:52.277Z,410
2022-08-01T01:06:13.137Z,411
2022-08-01T01:11:31.897Z,415
2022-08-01T01:16:50.649Z,416
2022-08-01T01:22:09.129Z,412
2022-08-01T01:27:27.905Z,410
2022-08-01T01:32:46.657Z,407
2022-08-01T01:38:05.169Z,413
2022-08-01T01:43:28.898Z,430
2022-08-01T01:48:51.696Z,443
2022-08-01T01:54:09.981Z,443
2022-08-01T01:59:28.153Z,433
2022-08-01T02:04:46.633Z,432
2022-08-01T02:10:05.121Z,430
2022-08-01T02:15:23.885Z,424
2022-08-01T02:20:42.656Z,422
2022-08-01T02:26:09.206Z,425
2022-08-01T02:31:30.079Z,421
2022-08-01T02:36:48.821Z,419
2022-08-01T02:42:07.861Z,421
2022-08-01T02:47:27.170Z,419
2022-08-01T02:52:45.079Z,419
2022-08-01T02:58:03.293Z,416
2022-08-01T03:03:22.188Z,417
2022-08-01T03:08:40.405Z,419
2022-08-01T03:13:58.888Z,420
2022-08-01T03:19:17.375Z,425
2022-08-01T03:24:36.112Z,429
2022-08-01T03:29:54.859Z,423
2022-08-01T03:35:13.349Z,424
2022-08-01T03:40:31.825Z,424
2022-08-01T03:45:50.312Z,426
2022-08-01T03:51:08.791Z,431
2022-08-01T03:56:27.578Z,435
2022-08-01T04:01:45.804Z,441
2022-08-01T04:07:04.134Z,441
2022-08-01T04:12:22.923Z,445
2022-08-01T04:17:41.442Z,468
2022-08-01T04:22:59.643Z,469
2022-08-01T04:28:18.376Z,459
2022-08-01T04:33:36.856Z,449
2022-08-01T04:38:55.065Z,454
2022-08-01T04:44:13.260Z,445
2022-08-01T04:49:31.844Z,440
2022-08-01T04:55:07.288Z,428
2022-08-01T05:00:25.215Z,426
2022-08-01T05:05:43.678Z,424
2022-08-01T05:11:01.884Z,429
2022-08-01T05:16:20.321Z,431
2022-08-01T05:21:38.493Z,429
2022-08-01T05:26:56.969Z,425
2022-08-01T05:32:15.742Z,414
2022-08-01T05:37:35.523Z,416
2022-08-01T05:42:55.076Z,419
2022-08-01T05:48:14.671Z,453
2022-08-01T05:53:32.874Z,431
2022-08-01T05:58:51.075Z,419
2022-08-01T06:04:09.827Z,413
2022-08-01T06:09:28.506Z,427
2022-08-01T06:14:46.802Z,416
2022-08-01T06:20:05.569Z,403
2022-08-01T06:25:24.341Z,399
2022-08-01T06:30:42.600Z,398
2022-08-01T06:36:01.362Z,399
2022-08-01T06:41:19.521Z,391
2022-08-01T06:46:37.721Z,391
2022-08-01T06:51:56.186Z,394
2022-08-01T06:56:59.045Z,390
2022-08-01T07:02:17.805Z,393
2022-08-01T07:07:36.003Z,394
2022-08-01T07:12:54.225Z,391
2022-08-01T07:18:12.967Z,388
2022-08-01T07:23:33.065Z,388
2022-08-01T07:29:03.597Z,390
2022-08-01T07:34:22.061Z,389
2022-08-01T07:39:40.537Z,384
2022-08-01T07:44:59.313Z,387
2022-08-01T07:50:18.066Z,389
2022-08-01T07:55:36.578Z,390
2022-08-01T08:00:39.692Z,389
2022-08-01T08:06:00.022Z,384
2022-08-01T08:11:18.449Z,387
2022-08-01T08:16:36.973Z,389
2022-08-01T08:21:55.721Z,387
2022-08-01T08:27:14.184Z,391
2022-08-01T08:32:32.950Z,388
2022-08-01T08:37:51.429Z,393
2022-08-01T08:43:17.556Z,387
2022-08-01T08:48:36.026Z,392
2022-08-01T08:53:54.366Z,393
2022-08-01T08:59:12.530Z,387
2022-08-01T09:04:31.032Z,388
2022-08-01T09:09:49.823Z,386
2022-08-01T09:15:09.675Z,387
2022-08-01T09:20:27.885Z,385
2022-08-01T09:25:47.693Z,384
2022-08-01T09:31:06.442Z,389
2022-08-01T09:36:27.147Z,390
2022-08-01T09:41:49.035Z,387
2022-08-01T09:47:07.535Z,392
2022-08-01T09:52:28.823Z,390
2022-08-01T09:57:47.576Z,387
2022-08-01T10:03:10.162Z,384
2022-08-01T10:08:30.201Z,391
2022-08-01T10:13:49.545Z,385
2022-08-01T10:19:10.987Z,389
2022-08-01T10:24:33.979Z,391
2022-08-01T10:30:00.042Z,385
2022-08-01T10:35:46.202Z,385
2022-08-01T10:41:08.741Z,388
2022-08-01T10:46:27.722Z,408
2022-08-01T10:51:51.885Z,411
2022-08-01T10:57:13.278Z,403
2022-08-01T11:02:34.610Z,398
2022-08-01T11:07:53.633Z,398
2022-08-01T11:13:12.405Z,395
2022-08-01T11:18:32.349Z,396
2022-08-01T11:23:50.839Z,408
2022-08-01T11:29:19.819Z,400
2022-08-01T11:34:40.924Z,392
2022-08-01T11:39:59.118Z,383
2022-08-01T11:45:18.995Z,381
2022-08-01T11:50:37.490Z,378
2022-08-01T11:55:57.021Z,376
2022-08-01T12:01:15.243Z,384
2022-08-01T12:06:34.049Z,387
2022-08-01T12:11:52.823Z,387
2022-08-01T12:17:11.579Z,387
2022-08-01T12:22:30.051Z,385
2022-08-01T12:27:51.213Z,387
2022-08-01T12:33:14.639Z,390
2022-08-01T12:38:33.131Z,391
2022-08-01T12:43:51.882Z,387
2022-08-01T12:49:10.396Z,387
2022-08-01T12:54:29.262Z,391
2022-08-01T12:59:47.766Z,388
2022-08-01T13:05:06.511Z,382
2022-08-01T13:10:25.000Z,388
2022-08-01T13:15:43.753Z,388
2022-08-01T13:21:03.021Z,386
2022-08-01T13:26:21.771Z,390
2022-08-01T13:31:46.747Z,391
2022-08-01T13:37:08.031Z,392
2022-08-01T13:42:26.764Z,390
2022-08-01T13:48:03.449Z,386
2022-08-01T13:53:42.953Z,388
2022-08-01T13:59:01.716Z,393
2022-08-01T14:04:20.477Z,393
2022-08-01T14:09:45.277Z,382
2022-08-01T14:15:39.694Z,385
2022-08-01T14:21:05.366Z,386
2022-08-01T14:26:24.524Z,383
2022-08-01T14:31:42.996Z,390
2022-08-01T14:37:01.196Z,388
2022-08-01T14:42:21.535Z,389
2022-08-01T14:47:40.024Z,392
2022-08-01T14:52:58.796Z,390
2022-08-01T14:58:17.275Z,394
2022-08-01T15:03:35.519Z,390
2022-08-01T15:08:54.241Z,390
2022-08-01T15:14:13.035Z,403
2022-08-01T15:19:31.484Z,437
2022-08-01T15:24:52.994Z,438
2022-08-01T15:30:15.990Z,427
2022-08-01T15:35:33.896Z,431
2022-08-01T15:40:52.101Z,428
2022-08-01T15:46:10.303Z,434
2022-08-01T15:51:28.746Z,443
2022-08-01T15:56:47.510Z,448
2022-08-01T16:02:06.611Z,447
2022-08-01T16:07:25.524Z,455
2022-08-01T16:12:44.009Z,458
2022-08-01T16:18:02.498Z,464
2022-08-01T16:23:20.977Z,463
2022-08-01T16:28:39.790Z,470
2022-08-01T16:34:02.215Z,468
2022-08-01T16:39:24.116Z,477
2022-08-01T16:44:42.601Z,475
2022-08-01T16:50:01.354Z,479
2022-08-01T16:55:20.123Z,464
2022-08-01T17:00:38.931Z,434
2022-08-01T17:05:57.380Z,419
2022-08-01T17:11:15.885Z,409
2022-08-01T17:16:34.087Z,410
2022-08-01T17:21:52.902Z,407
2022-08-01T17:27:13.206Z,404
2022-08-01T17:32:32.424Z,410
2022-08-01T17:37:51.183Z,410
2022-08-01T17:43:09.664Z,407
2022-08-01T17:48:28.139Z,425
2022-08-01T17:53:55.809Z,433
2022-08-01T17:59:16.352Z,442
2022-08-01T18:04:34.858Z,419
2022-08-01T18:10:02.621Z,427
2022-08-01T18:15:24.571Z,434
2022-08-01T18:20:45.487Z,457
2022-08-01T18:26:04.226Z,462
2022-08-01T18:31:22.455Z,462
2022-08-01T18:36:41.194Z,474
2022-08-01T18:42:03.035Z,500
2022-08-01T18:47:21.791Z,500
2022-08-01T18:52:40.286Z,495
2022-08-01T18:57:43.403Z,501
2022-08-01T19:03:01.887Z,508
2022-08-01T19:08:07.697Z,508
2022-08-01T19:13:26.765Z,488
2022-08-01T19:18:29.609Z,474
2022-08-01T19:23:48.084Z,466
2022-08-01T19:29:07.030Z,457
2022-08-01T19:34:26.391Z,463
2022-08-01T19:39:44.752Z,481
2022-08-01T19:45:03.494Z,482
2022-08-01T19:50:21.937Z,475
2022-08-01T19:55:40.415Z,465
2022-08-01T20:00:58.898Z,466
2022-08-01T20:06:17.399Z,470
2022-08-01T20:11:36.188Z,480
2022-08-01T20:16:54.399Z,488
2022-08-01T20:22:12.549Z,505
2022-08-01T20:27:31.266Z,499
2022-08-01T20:32:49.179Z,484
2022-08-01T20:38:07.414Z,494
2022-08-01T20:43:29.008Z,474
2022-08-01T20:48:47.743Z,456
2022-08-01T20:54:06.394Z,450
2022-08-01T20:59:39.397Z,434
2022-08-01T21:05:15.790Z,420
2022-08-01T21:10:34.566Z,411
2022-08-01T21:16:07.456Z,411
2022-08-01T21:21:43.549Z,407
2022-08-01T21:27:02.039Z,410
2022-08-01T21:32:20.519Z,411
2022-08-01T21:37:39.308Z,413
2022-08-01T21:42:58.070Z,418
2022-08-01T21:48:16.259Z,421
2022-08-01T21:53:48.868Z,427
2022-08-01T21:59:07.076Z,425
2022-08-01T22:04:25.000Z,424
2022-08-01T22:09:43.210Z,427
2022-08-01T22:15:01.724Z,428
2022-08-01T22:20:19.907Z,426
2022-08-01T22:25:38.644Z,423
2022-08-01T22:30:57.413Z,426
2022-08-01T22:36:15.902Z,425
2022-08-01T22:42:01.047Z,433
2022-08-01T22:47:20.469Z,428
2022-08-01T22:52:39.204Z,427
2022-08-01T22:57:57.979Z,427
2022-08-01T23:03:16.729Z,430
2022-08-01T23:08:35.225Z,435
2022-08-01T23:13:53.999Z,442
2022-08-01T23:19:12.766Z,442
2022-08-01T23:24:30.982Z,448
2022-08-01T23:29:50.265Z,458
2022-08-01T23:35:09.039Z,459
2022-08-01T23:40:27.792Z,466
2022-08-01T23:46:03.030Z,477
2022-08-01T23:51:24.806Z,493
2022-08-01T23:56:43.245Z,505
